createdAt,value
2019-02-28T00:03:03.103Z,102012.23
2019-02-28T00:08:05.220Z,102015.38
2019-02-28T00:13:10.282Z,102004.73
2019-02-28T00:18:15.198Z,102004.11
2019-02-28T00:23:19.182Z,101993.64
2019-02-28T00:28:23.064Z,101990.61
2019-02-28T00:33:26.880Z,101992.78
2019-02-28T00:38:29.659Z,101986.27
2019-02-28T00:43:35.311Z,101981.01
2019-02-28T00:48:37.453Z,101983.05
2019-02-28T00:53:42.149Z,101984.84
2019-02-28T00:58:45.524Z,101976.97
2019-02-28T01:03:58.033Z,101975.54
2019-02-28T01:08:58.904Z,101971.25
2019-02-28T01:14:03.607Z,101970.20
2019-02-28T01:19:10.148Z,101959.95
2019-02-28T01:24:14.641Z,101946.86
2019-02-28T01:29:19.439Z,101942.19
2019-02-28T01:34:22.924Z,101931.23
2019-02-28T01:39:30.704Z,101927.38
2019-02-28T01:44:35.805Z,101924.38
2019-02-28T01:49:40.815Z,101927.45
2019-02-28T01:54:43.367Z,101926.41
2019-02-28T01:59:48.264Z,101917.75
2019-02-28T02:04:50.362Z,101914.68
2019-02-28T02:09:52.758Z,101911.56
2019-02-28T02:14:57.139Z,101892.83
2019-02-28T02:20:01.327Z,101901.84
2019-02-28T02:25:08.532Z,101901.83
2019-02-28T02:30:15.752Z,101898.66
2019-02-28T02:35:18.065Z,101891.92
2019-02-28T02:40:23.243Z,101887.33
2019-02-28T02:45:26.694Z,101896.00
2019-02-28T02:50:35.925Z,101887.39
2019-02-28T02:55:38.503Z,101889.51
2019-02-28T03:00:49.473Z,101882.13
2019-02-28T03:05:52.773Z,101876.27
2019-02-28T03:10:55.974Z,101874.37
2019-02-28T03:15:59.263Z,101864.34
2019-02-28T03:21:02.067Z,101864.36
2019-02-28T03:26:07.151Z,101859.64
2019-02-28T03:31:14.420Z,101858.10
2019-02-28T03:36:17.293Z,101854.32
2019-02-28T03:41:19.308Z,101854.03
2019-02-28T03:46:25.086Z,101860.67
2019-02-28T03:51:32.010Z,101858.70
2019-02-28T03:56:38.217Z,101856.42
2019-02-28T04:01:45.383Z,101853.92
2019-02-28T04:06:48.589Z,101849.86
2019-02-28T04:11:53.417Z,101840.69
2019-02-28T04:16:55.711Z,101831.53
2019-02-28T04:21:57.709Z,101836.54
2019-02-28T04:27:05.895Z,101826.06
2019-02-28T04:32:05.813Z,101819.45
2019-02-28T04:37:09.539Z,101811.23
2019-02-28T04:42:13.034Z,101811.33
2019-02-28T04:47:20.297Z,101809.44
2019-02-28T04:52:22.373Z,101795.92
2019-02-28T04:57:27.163Z,101788.82
2019-02-28T05:02:29.253Z,101789.28
2019-02-28T05:07:34.121Z,101790.02
2019-02-28T05:12:39.497Z,101780.57
2019-02-28T05:17:42.264Z,101778.34
2019-02-28T05:22:44.360Z,101766.44
2019-02-28T05:27:46.406Z,101758.26
2019-02-28T05:32:51.065Z,101763.44
2019-02-28T05:37:54.245Z,101751.34
2019-02-28T05:42:58.281Z,101748.50
2019-02-28T05:48:03.789Z,101762.03
2019-02-28T05:53:06.240Z,101743.04
2019-02-28T05:58:11.872Z,101758.72
2019-02-28T06:03:17.775Z,101752.67
2019-02-28T06:08:20.900Z,101745.67
2019-02-28T06:13:23.274Z,101750.99
2019-02-28T06:18:32.684Z,101750.97
2019-02-28T06:23:31.179Z,101758.81
2019-02-28T06:28:36.208Z,101750.59
2019-02-28T06:33:38.251Z,101743.33
2019-02-28T06:38:40.295Z,101748.89
2019-02-28T06:43:44.595Z,101741.61
2019-02-28T06:48:46.711Z,101744.53
2019-02-28T06:53:48.798Z,101745.73
2019-02-28T06:58:53.605Z,101735.55
2019-02-28T07:03:55.775Z,101734.03
2019-02-28T07:09:01.829Z,101744.02
2019-02-28T07:14:03.715Z,101744.29
2019-02-28T07:19:06.494Z,101743.61
2019-02-28T07:24:12.389Z,101743.68
2019-02-28T07:29:16.735Z,101746.53
2019-02-28T07:34:23.852Z,101750.76
2019-02-28T07:39:24.362Z,101762.16
2019-02-28T07:44:26.584Z,101768.11
2019-02-28T07:49:28.674Z,101772.73
2019-02-28T07:54:31.396Z,101772.99
2019-02-28T07:59:33.645Z,101773.08
2019-02-28T08:04:35.926Z,101781.68
2019-02-28T08:09:40.606Z,101782.41
2019-02-28T08:14:43.653Z,101787.92
2019-02-28T08:19:47.524Z,101788.65
2019-02-28T08:24:49.686Z,101761.45
2019-02-28T08:29:51.935Z,101750.52
2019-02-28T08:34:55.601Z,101733.20
2019-02-28T08:39:58.114Z,101721.34
2019-02-28T08:45:00.484Z,101722.61
2019-02-28T08:50:03.676Z,101708.73
2019-02-28T08:55:09.244Z,101699.99
2019-02-28T09:00:13.800Z,101718.58
2019-02-28T09:05:15.958Z,101701.08
2019-02-28T09:10:18.361Z,101708.96
2019-02-28T09:15:20.799Z,101720.20
2019-02-28T09:20:22.817Z,101731.94
2019-02-28T09:25:27.188Z,101725.99
2019-02-28T09:30:36.357Z,101730.14
2019-02-28T09:35:45.280Z,101727.22
2019-02-28T09:40:49.556Z,101737.25
2019-02-28T09:45:51.609Z,101720.81
2019-02-28T09:50:59.174Z,101718.05
2019-02-28T09:56:01.418Z,101732.92
2019-02-28T10:01:06.768Z,101727.48
2019-02-28T10:06:09.119Z,101739.98
2019-02-28T10:11:15.476Z,101738.17
2019-02-28T10:16:21.923Z,101743.64
2019-02-28T10:21:25.353Z,101746.42
2019-02-28T10:26:27.829Z,101734.84
2019-02-28T10:31:36.179Z,101742.54
2019-02-28T10:36:52.220Z,101723.73
2019-02-28T10:41:56.881Z,101718.67
2019-02-28T10:47:04.287Z,101715.73
2019-02-28T10:52:08.417Z,101718.04
2019-02-28T10:57:10.754Z,101714.88
2019-02-28T11:02:18.932Z,101712.69
2019-02-28T11:07:19.309Z,101706.45
2019-02-28T11:12:23.741Z,101711.88
2019-02-28T11:17:25.917Z,101711.88
2019-02-28T11:22:28.046Z,101708.56
2019-02-28T11:27:30.363Z,101704.26
2019-02-28T11:32:32.573Z,101705.05
2019-02-28T11:37:35.557Z,101696.20
2019-02-28T11:42:37.824Z,101701.00
2019-02-28T11:47:42.628Z,101707.34
2019-02-28T11:52:43.989Z,101693.55
2019-02-28T11:57:46.101Z,101695.35
2019-02-28T12:02:53.385Z,101679.91
2019-02-28T12:07:52.689Z,101679.91
2019-02-28T12:12:56.376Z,101678.56
2019-02-28T12:18:03.597Z,101670.20
2019-02-28T12:23:02.661Z,101678.92
2019-02-28T12:28:06.637Z,101678.92
2019-02-28T12:33:09.282Z,101668.06
2019-02-28T12:38:11.408Z,101681.34
2019-02-28T12:43:13.641Z,101688.54
2019-02-28T12:48:16.083Z,101697.47
2019-02-28T12:53:24.331Z,101692.64
2019-02-28T12:58:22.771Z,101676.78
2019-02-28T13:03:25.573Z,101672.98
2019-02-28T13:08:27.703Z,101667.98
2019-02-28T13:13:30.125Z,101665.73
2019-02-28T13:18:32.288Z,101670.05
2019-02-28T13:23:34.593Z,101677.42
2019-02-28T13:28:38.903Z,101661.27
2019-02-28T13:33:48.619Z,101663.55
2019-02-28T13:38:49.501Z,101669.16
2019-02-28T13:43:54.758Z,101669.16
2019-02-28T13:48:58.111Z,101670.86
2019-02-28T13:54:03.134Z,101662.12
2019-02-28T13:59:05.480Z,101653.98
2019-02-28T14:04:13.889Z,101652.84
2019-02-28T14:09:18.916Z,101641.06
2019-02-28T14:14:22.174Z,101635.59
2019-02-28T14:19:26.610Z,101626.30
2019-02-28T14:24:30.953Z,101628.36
2019-02-28T14:29:35.102Z,101627.48
2019-02-28T14:34:37.320Z,101630.30
2019-02-28T14:39:43.604Z,101623.10
2019-02-28T14:44:49.445Z,101623.10
2019-02-28T14:49:53.885Z,101616.52
2019-02-28T14:54:58.305Z,101597.21
2019-02-28T15:00:06.540Z,101597.21
2019-02-28T15:05:16.693Z,101608.47
2019-02-28T15:10:21.840Z,101610.84
2019-02-28T15:15:24.247Z,101607.34
2019-02-28T15:20:31.789Z,101607.34
2019-02-28T15:25:31.536Z,101595.34
2019-02-28T15:30:34.985Z,101598.06
2019-02-28T15:35:37.266Z,101602.68
2019-02-28T15:40:44.301Z,101590.94
2019-02-28T15:45:46.557Z,101577.52
2019-02-28T15:50:51.687Z,101566.67
2019-02-28T15:55:56.916Z,101566.23
2019-02-28T16:01:01.373Z,101565.14
2019-02-28T16:06:03.636Z,101554.24
2019-02-28T16:11:06.262Z,101532.66
2019-02-28T16:16:09.499Z,101540.39
2019-02-28T16:21:11.562Z,101540.39
2019-02-28T16:26:18.234Z,101531.20
2019-02-28T16:31:23.212Z,101531.47
2019-02-28T16:36:29.197Z,101531.47
2019-02-28T16:41:33.703Z,101536.05
2019-02-28T16:46:38.107Z,101517.50
2019-02-28T16:51:40.259Z,101517.50
2019-02-28T16:56:42.524Z,101519.73
2019-02-28T17:01:48.268Z,101512.04
2019-02-28T17:06:53.027Z,101520.70
2019-02-28T17:12:15.340Z,101520.70
2019-02-28T17:17:23.826Z,101515.36
2019-02-28T17:22:27.120Z,101510.05
2019-02-28T17:27:53.912Z,101508.93
2019-02-28T17:33:01.433Z,101504.11
2019-02-28T17:38:03.800Z,101516.78
2019-02-28T17:43:06.039Z,101513.08
2019-02-28T17:48:31.223Z,101505.66
2019-02-28T17:54:21.053Z,101504.89
2019-02-28T17:59:48.131Z,101496.04
2019-02-28T18:05:29.843Z,101496.04
2019-02-28T18:11:16.546Z,101491.77
2019-02-28T18:16:49.274Z,101495.62
2019-02-28T18:22:19.014Z,101497.33
2019-02-28T18:27:53.949Z,101486.12
2019-02-28T18:33:00.006Z,101478.51
2019-02-28T18:38:05.792Z,101471.41
2019-02-28T18:43:11.820Z,101466.98
2019-02-28T18:48:17.973Z,101460.69
2019-02-28T18:53:25.555Z,101444.54
2019-02-28T18:58:27.615Z,101442.53
2019-02-28T19:03:29.748Z,101438.80
2019-02-28T19:08:35.098Z,101440.10
2019-02-28T19:13:39.162Z,101433.13
2019-02-28T19:18:41.203Z,101432.16
2019-02-28T19:23:43.784Z,101426.52
2019-02-28T19:28:45.956Z,101421.56
2019-02-28T19:33:48.455Z,101418.57
2019-02-28T19:38:50.493Z,101417.67
2019-02-28T19:43:56.553Z,101412.45
2019-02-28T19:48:58.649Z,101418.38
2019-02-28T19:54:02.189Z,101416.08
2019-02-28T19:59:11.656Z,101408.40
2019-02-28T20:04:15.392Z,101401.38
2019-02-28T20:09:26.488Z,101401.38
2019-02-28T20:14:29.058Z,101402.01
2019-02-28T20:19:34.027Z,101401.01
2019-02-28T20:24:37.905Z,101394.02
2019-02-28T20:29:44.788Z,101392.41
2019-02-28T20:34:49.006Z,101394.45
2019-02-28T20:39:51.326Z,101397.06
2019-02-28T20:44:53.654Z,101395.66
2019-02-28T20:49:57.887Z,101394.23
2019-02-28T20:55:00.383Z,101391.73
2019-02-28T21:00:02.649Z,101381.44
2019-02-28T21:05:09.520Z,101388.43
2019-02-28T21:10:11.673Z,101385.22
2019-02-28T21:15:18.285Z,101380.53
2019-02-28T21:20:25.816Z,101372.39
2019-02-28T21:25:30.019Z,101380.69
2019-02-28T21:30:33.988Z,101376.27
2019-02-28T21:35:36.289Z,101377.02
2019-02-28T21:40:44.009Z,101370.94
2019-02-28T21:45:47.260Z,101369.88
2019-02-28T21:50:49.359Z,101369.98
2019-02-28T21:55:55.777Z,101367.59
2019-02-28T22:00:57.838Z,101359.62
2019-02-28T22:06:01.765Z,101356.25
2019-02-28T22:11:03.816Z,101356.25
2019-02-28T22:16:11.590Z,101355.77
2019-02-28T22:21:13.619Z,101356.23
2019-02-28T22:26:16.674Z,101349.06
2019-02-28T22:31:43.228Z,101346.56
2019-02-28T22:36:49.971Z,101344.39
2019-02-28T22:41:52.036Z,101337.92
2019-02-28T22:46:57.132Z,101341.77
2019-02-28T22:52:02.047Z,101335.00
2019-02-28T22:57:04.380Z,101337.56
2019-02-28T23:02:06.749Z,101321.75
2019-02-28T23:07:14.039Z,101318.83
2019-02-28T23:12:16.118Z,101321.73
2019-02-28T23:17:18.246Z,101317.75
2019-02-28T23:22:20.319Z,101309.39
2019-02-28T23:27:24.196Z,101301.13
2019-02-28T23:32:43.736Z,101307.78
2019-02-28T23:37:48.811Z,101310.98
2019-02-28T23:42:50.867Z,101305.39
2019-02-28T23:47:58.808Z,101292.20
2019-02-28T23:53:00.983Z,101296.92
2019-02-28T23:58:03.181Z,101286.01
